sensor_id;sensor_type;location;lat;lon;timestamp;pressure;altitude;pressure_sealevel;temperature;humidity
56944;BME280;42848;42.524;12.052;2022-12-24T00:01:19;96733.31;;;10.33;100.00
56944;BME280;42848;42.524;12.052;2022-12-24T00:03:44;96724.69;;;10.31;100.00
56944;BME280;42848;42.524;12.052;2022-12-24T00:06:19;96727.09;;;10.50;100.00
56944;BME280;42848;42.524;12.052;2022-12-24T00:08:46;96728.53;;;10.30;100.00
56944;BME280;42848;42.524;12.052;2022-12-24T00:11:12;96726.63;;;10.39;100.00
56944;BME280;42848;42.524;12.052;2022-12-24T00:13:37;96726.28;;;10.32;100.00
56944;BME280;42848;42.524;12.052;2022-12-24T00:16:04;96738.25;;;10.22;100.00
56944;BME280;42848;42.524;12.052;2022-12-24T00:18:30;96738.06;;;10.19;100.00
56944;BME280;42848;42.524;12.052;2022-12-24T00:20:56;96745.16;;;9.80;100.00
56944;BME280;42848;42.524;12.052;2022-12-24T00:23:22;96739.44;;;9.90;100.00
56944;BME280;42848;42.524;12.052;2022-12-24T00:25:47;96740.50;;;9.72;100.00
56944;BME280;42848;42.524;12.052;2022-12-24T00:28:14;96734.41;;;9.66;100.00
56944;BME280;42848;42.524;12.052;2022-12-24T00:30:41;96728.13;;;9.97;100.00
56944;BME280;42848;42.524;12.052;2022-12-24T00:33:07;96726.75;;;9.68;100.00
56944;BME280;42848;42.524;12.052;2022-12-24T00:35:36;96729.00;;;9.75;100.00
56944;BME280;42848;42.524;12.052;2022-12-24T00:38:02;96726.06;;;10.03;100.00
56944;BME280;42848;42.524;12.052;2022-12-24T00:40:29;96720.34;;;10.13;100.00
56944;BME280;42848;42.524;12.052;2022-12-24T00:42:55;96729.06;;;9.92;100.00
56944;BME280;42848;42.524;12.052;2022-12-24T00:45:21;96727.06;;;10.15;100.00
56944;BME280;42848;42.524;12.052;2022-12-24T00:47:47;96726.34;;;9.92;100.00
56944;BME280;42848;42.524;12.052;2022-12-24T00:50:13;96728.38;;;9.78;100.00
56944;BME280;42848;42.524;12.052;2022-12-24T00:52:39;96726.47;;;9.70;100.00
56944;BME280;42848;42.524;12.052;2022-12-24T00:55:05;96724.84;;;9.69;100.00
56944;BME280;42848;42.524;12.052;2022-12-24T00:57:30;96728.34;;;9.61;100.00
56944;BME280;42848;42.524;12.052;2022-12-24T00:59:56;96734.44;;;9.75;100.00
56944;BME280;42848;42.524;12.052;2022-12-24T01:02:22;96732.22;;;9.77;100.00
56944;BME280;42848;42.524;12.052;2022-12-24T01:04:48;96736.03;;;9.76;100.00
56944;BME280;42848;42.524;12.052;2022-12-24T01:07:32;96736.78;;;10.08;100.00
56944;BME280;42848;42.524;12.052;2022-12-24T01:09:58;96735.06;;;9.72;100.00
56944;BME280;42848;42.524;12.052;2022-12-24T01:12:24;96737.25;;;9.53;100.00
56944;BME280;42848;42.524;12.052;2022-12-24T01:14:50;96745.56;;;9.65;100.00
56944;BME280;42848;42.524;12.052;2022-12-24T01:17:16;96735.28;;;9.45;100.00
56944;BME280;42848;42.524;12.052;2022-12-24T01:19:41;96742.50;;;9.58;100.00
56944;BME280;42848;42.524;12.052;2022-12-24T01:22:07;96735.84;;;9.64;100.00
56944;BME280;42848;42.524;12.052;2022-12-24T01:24:33;96719.69;;;9.59;100.00
56944;BME280;42848;42.524;12.052;2022-12-24T01:26:59;96714.03;;;9.78;100.00
56944;BME280;42848;42.524;12.052;2022-12-24T01:29:24;96722.63;;;9.71;100.00
56944;BME280;42848;42.524;12.052;2022-12-24T01:31:50;96727.94;;;9.85;100.00
56944;BME280;42848;42.524;12.052;2022-12-24T01:34:16;96739.28;;;9.95;100.00
56944;BME280;42848;42.524;12.052;2022-12-24T01:36:42;96720.72;;;9.72;100.00
56944;BME280;42848;42.524;12.052;2022-12-24T01:39:07;96713.03;;;9.65;100.00
56944;BME280;42848;42.524;12.052;2022-12-24T01:41:33;96706.78;;;10.13;100.00
56944;BME280;42848;42.524;12.052;2022-12-24T01:46:43;96719.94;;;9.71;100.00
56944;BME280;42848;42.524;12.052;2022-12-24T01:49:12;96721.84;;;9.39;100.00
56944;BME280;42848;42.524;12.052;2022-12-24T01:51:46;96709.78;;;9.46;100.00
56944;BME280;42848;42.524;12.052;2022-12-24T01:54:42;96712.47;;;9.85;100.00
56944;BME280;42848;42.524;12.052;2022-12-24T01:57:14;96703.38;;;9.41;100.00
56944;BME280;42848;42.524;12.052;2022-12-24T01:59:42;96708.78;;;9.81;100.00
56944;BME280;42848;42.524;12.052;2022-12-24T02:02:11;96692.66;;;9.28;100.00
56944;BME280;42848;42.524;12.052;2022-12-24T02:07:20;96675.91;;;9.65;100.00
56944;BME280;42848;42.524;12.052;2022-12-24T02:09:46;96663.97;;;9.27;100.00
56944;BME280;42848;42.524;12.052;2022-12-24T02:12:13;96669.34;;;9.18;100.00
56944;BME280;42848;42.524;12.052;2022-12-24T02:14:39;96676.03;;;9.52;100.00
56944;BME280;42848;42.524;12.052;2022-12-24T02:17:25;96685.16;;;9.25;100.00
56944;BME280;42848;42.524;12.052;2022-12-24T02:22:58;96657.63;;;9.88;100.00
56944;BME280;42848;42.524;12.052;2022-12-24T02:28:48;96658.66;;;9.53;100.00
56944;BME280;42848;42.524;12.052;2022-12-24T02:31:35;96647.19;;;9.64;100.00
56944;BME280;42848;42.524;12.052;2022-12-24T02:34:08;96662.25;;;9.39;100.00
56944;BME280;42848;42.524;12.052;2022-12-24T02:37:05;96669.63;;;9.48;100.00
56944;BME280;42848;42.524;12.052;2022-12-24T02:40:02;96673.50;;;9.64;100.00
56944;BME280;42848;42.524;12.052;2022-12-24T02:42:30;96670.63;;;9.69;100.00
56944;BME280;42848;42.524;12.052;2022-12-24T02:45:06;96671.97;;;9.80;100.00
56944;BME280;42848;42.524;12.052;2022-12-24T02:47:33;96669.97;;;9.55;100.00
56944;BME280;42848;42.524;12.052;2022-12-24T02:50:00;96673.94;;;9.49;100.00
56944;BME280;42848;42.524;12.052;2022-12-24T02:52:38;96673.88;;;9.88;100.00
56944;BME280;42848;42.524;12.052;2022-12-24T03:00:09;96690.63;;;9.90;100.00
56944;BME280;42848;42.524;12.052;2022-12-24T03:08:07;96682.47;;;9.73;100.00
56944;BME280;42848;42.524;12.052;2022-12-24T03:10:42;96675.00;;;9.79;100.00
56944;BME280;42848;42.524;12.052;2022-12-24T03:13:17;96694.72;;;9.71;100.00
56944;BME280;42848;42.524;12.052;2022-12-24T03:15:46;96687.09;;;9.73;100.00
56944;BME280;42848;42.524;12.052;2022-12-24T03:18:14;96695.53;;;9.71;100.00
56944;BME280;42848;42.524;12.052;2022-12-24T03:20:52;96699.06;;;9.80;100.00
56944;BME280;42848;42.524;12.052;2022-12-24T03:23:19;96698.91;;;9.85;100.00
56944;BME280;42848;42.524;12.052;2022-12-24T03:25:45;96695.28;;;10.07;100.00
56944;BME280;42848;42.524;12.052;2022-12-24T03:28:13;96689.88;;;10.16;100.00
56944;BME280;42848;42.524;12.052;2022-12-24T03:30:41;96683.94;;;9.88;100.00
56944;BME280;42848;42.524;12.052;2022-12-24T03:33:08;96689.66;;;9.86;100.00
56944;BME280;42848;42.524;12.052;2022-12-24T03:35:34;96702.00;;;10.10;100.00
56944;BME280;42848;42.524;12.052;2022-12-24T03:37:59;96696.72;;;10.13;100.00
56944;BME280;42848;42.524;12.052;2022-12-24T03:40:25;96700.50;;;9.86;100.00
56944;BME280;42848;42.524;12.052;2022-12-24T03:42:51;96713.91;;;9.83;100.00
56944;BME280;42848;42.524;12.052;2022-12-24T03:45:16;96706.09;;;9.81;100.00
56944;BME280;42848;42.524;12.052;2022-12-24T03:47:43;96704.59;;;9.66;100.00
56944;BME280;42848;42.524;12.052;2022-12-24T03:50:09;96698.22;;;9.62;100.00
56944;BME280;42848;42.524;12.052;2022-12-24T03:52:35;96709.63;;;9.51;100.00
56944;BME280;42848;42.524;12.052;2022-12-24T03:55:00;96700.88;;;9.54;100.00
56944;BME280;42848;42.524;12.052;2022-12-24T03:57:26;96693.50;;;9.37;100.00
56944;BME280;42848;42.524;12.052;2022-12-24T03:59:52;96695.03;;;9.29;100.00
56944;BME280;42848;42.524;12.052;2022-12-24T04:02:17;96700.38;;;9.12;100.00
56944;BME280;42848;42.524;12.052;2022-12-24T04:04:43;96706.91;;;9.11;100.00
56944;BME280;42848;42.524;12.052;2022-12-24T04:07:09;96703.72;;;8.87;100.00
56944;BME280;42848;42.524;12.052;2022-12-24T04:09:35;96700.72;;;8.88;100.00
56944;BME280;42848;42.524;12.052;2022-12-24T04:12:01;96714.44;;;8.92;100.00
56944;BME280;42848;42.524;12.052;2022-12-24T04:14:26;96714.66;;;9.04;100.00
56944;BME280;42848;42.524;12.052;2022-12-24T04:16:52;96719.97;;;9.09;100.00
56944;BME280;42848;42.524;12.052;2022-12-24T04:19:17;96713.16;;;9.20;100.00
56944;BME280;42848;42.524;12.052;2022-12-24T04:21:43;96720.81;;;8.96;100.00
56944;BME280;42848;42.524;12.052;2022-12-24T04:24:09;96718.94;;;8.96;100.00
56944;BME280;42848;42.524;12.052;2022-12-24T04:26:34;96711.94;;;9.26;100.00
56944;BME280;42848;42.524;12.052;2022-12-24T04:29:00;96725.31;;;9.31;100.00
56944;BME280;42848;42.524;12.052;2022-12-24T04:31:25;96734.00;;;9.51;100.00
56944;BME280;42848;42.524;12.052;2022-12-24T04:33:51;96728.06;;;9.71;100.00
56944;BME280;42848;42.524;12.052;2022-12-24T04:36:18;96721.72;;;9.84;100.00
56944;BME280;42848;42.524;12.052;2022-12-24T04:38:45;96736.03;;;9.76;100.00
56944;BME280;42848;42.524;12.052;2022-12-24T04:41:17;96747.22;;;9.83;100.00
56944;BME280;42848;42.524;12.052;2022-12-24T04:43:43;96741.97;;;9.47;100.00
56944;BME280;42848;42.524;12.052;2022-12-24T04:46:14;96744.25;;;9.54;100.00
56944;BME280;42848;42.524;12.052;2022-12-24T04:48:43;96737.59;;;9.29;100.00
56944;BME280;42848;42.524;12.052;2022-12-24T04:51:10;96755.28;;;9.26;100.00
56944;BME280;42848;42.524;12.052;2022-12-24T04:53:37;96758.56;;;9.15;100.00
56944;BME280;42848;42.524;12.052;2022-12-24T04:56:06;96757.13;;;9.17;100.00
56944;BME280;42848;42.524;12.052;2022-12-24T04:58:33;96751.72;;;9.17;100.00
56944;BME280;42848;42.524;12.052;2022-12-24T05:01:03;96755.16;;;9.09;100.00
56944;BME280;42848;42.524;12.052;2022-12-24T05:03:29;96760.25;;;9.10;100.00
56944;BME280;42848;42.524;12.052;2022-12-24T05:06:01;96765.50;;;9.07;100.00
56944;BME280;42848;42.524;12.052;2022-12-24T05:08:26;96763.28;;;9.09;100.00
56944;BME280;42848;42.524;12.052;2022-12-24T05:10:57;96763.78;;;9.11;100.00
56944;BME280;42848;42.524;12.052;2022-12-24T05:13:24;96765.75;;;9.19;100.00
56944;BME280;42848;42.524;12.052;2022-12-24T05:15:50;96769.25;;;9.20;100.00
56944;BME280;42848;42.524;12.052;2022-12-24T05:18:16;96749.00;;;9.17;100.00
56944;BME280;42848;42.524;12.052;2022-12-24T05:20:42;96759.22;;;9.20;100.00
56944;BME280;42848;42.524;12.052;2022-12-24T05:23:12;96756.69;;;9.24;100.00
56944;BME280;42848;42.524;12.052;2022-12-24T05:25:57;96757.84;;;9.31;100.00
56944;BME280;42848;42.524;12.052;2022-12-24T05:28:42;96751.81;;;9.34;100.00
56944;BME280;42848;42.524;12.052;2022-12-24T05:31:07;96760.84;;;9.30;100.00
56944;BME280;42848;42.524;12.052;2022-12-24T05:33:33;96753.63;;;9.48;100.00
56944;BME280;42848;42.524;12.052;2022-12-24T05:35:59;96758.03;;;9.35;100.00
56944;BME280;42848;42.524;12.052;2022-12-24T05:38:24;96758.81;;;9.35;100.00
56944;BME280;42848;42.524;12.052;2022-12-24T05:40:50;96753.69;;;9.25;100.00
56944;BME280;42848;42.524;12.052;2022-12-24T05:43:15;96772.16;;;9.54;100.00
56944;BME280;42848;42.524;12.052;2022-12-24T05:45:41;96770.09;;;9.60;100.00
56944;BME280;42848;42.524;12.052;2022-12-24T05:48:07;96762.69;;;9.83;100.00
56944;BME280;42848;42.524;12.052;2022-12-24T05:50:34;96764.78;;;9.86;100.00
56944;BME280;42848;42.524;12.052;2022-12-24T05:53:00;96744.16;;;9.76;100.00
56944;BME280;42848;42.524;12.052;2022-12-24T05:55:26;96745.63;;;9.43;100.00
56944;BME280;42848;42.524;12.052;2022-12-24T05:57:51;96737.56;;;9.60;100.00
56944;BME280;42848;42.524;12.052;2022-12-24T06:00:17;96715.25;;;9.54;100.00
56944;BME280;42848;42.524;12.052;2022-12-24T06:02:43;96731.59;;;9.40;100.00
56944;BME280;42848;42.524;12.052;2022-12-24T06:05:08;96732.69;;;9.71;100.00
56944;BME280;42848;42.524;12.052;2022-12-24T06:07:34;96734.13;;;9.37;100.00
56944;BME280;42848;42.524;12.052;2022-12-24T06:10:00;96741.91;;;9.61;100.00
56944;BME280;42848;42.524;12.052;2022-12-24T06:12:25;96736.53;;;9.38;100.00
56944;BME280;42848;42.524;12.052;2022-12-24T06:14:51;96735.38;;;9.31;100.00
56944;BME280;42848;42.524;12.052;2022-12-24T06:17:17;96731.00;;;9.21;100.00
56944;BME280;42848;42.524;12.052;2022-12-24T06:19:43;96737.31;;;9.08;100.00
56944;BME280;42848;42.524;12.052;2022-12-24T06:22:08;96741.03;;;9.21;100.00
56944;BME280;42848;42.524;12.052;2022-12-24T06:24:34;96732.06;;;9.11;100.00
56944;BME280;42848;42.524;12.052;2022-12-24T06:26:59;96731.09;;;9.38;100.00
56944;BME280;42848;42.524;12.052;2022-12-24T06:29:25;96736.41;;;9.44;100.00
56944;BME280;42848;42.524;12.052;2022-12-24T06:31:51;96745.88;;;9.32;100.00
56944;BME280;42848;42.524;12.052;2022-12-24T06:34:16;96739.03;;;9.66;100.00
56944;BME280;42848;42.524;12.052;2022-12-24T06:36:42;96740.28;;;9.60;100.00
56944;BME280;42848;42.524;12.052;2022-12-24T06:39:08;96734.94;;;9.37;100.00
56944;BME280;42848;42.524;12.052;2022-12-24T06:41:33;96731.72;;;9.75;100.00
56944;BME280;42848;42.524;12.052;2022-12-24T06:43:59;96730.50;;;9.90;100.00
56944;BME280;42848;42.524;12.052;2022-12-24T06:46:25;96720.25;;;9.69;100.00
56944;BME280;42848;42.524;12.052;2022-12-24T06:48:51;96731.06;;;9.61;100.00
56944;BME280;42848;42.524;12.052;2022-12-24T06:51:17;96728.66;;;9.68;100.00
56944;BME280;42848;42.524;12.052;2022-12-24T06:53:44;96722.28;;;9.64;100.00
56944;BME280;42848;42.524;12.052;2022-12-24T06:56:12;96713.53;;;9.76;100.00
56944;BME280;42848;42.524;12.052;2022-12-24T06:58:39;96726.03;;;9.94;100.00
56944;BME280;42848;42.524;12.052;2022-12-24T07:01:07;96734.47;;;9.84;100.00
56944;BME280;42848;42.524;12.052;2022-12-24T07:03:33;96739.50;;;10.08;100.00
56944;BME280;42848;42.524;12.052;2022-12-24T07:06:00;96726.84;;;9.94;100.00
56944;BME280;42848;42.524;12.052;2022-12-24T07:08:26;96733.25;;;10.07;100.00
56944;BME280;42848;42.524;12.052;2022-12-24T07:10:52;96745.03;;;9.94;100.00
56944;BME280;42848;42.524;12.052;2022-12-24T07:13:18;96745.38;;;10.10;100.00
56944;BME280;42848;42.524;12.052;2022-12-24T07:15:44;96753.06;;;10.16;100.00
56944;BME280;42848;42.524;12.052;2022-12-24T07:18:10;96744.66;;;9.78;100.00
56944;BME280;42848;42.524;12.052;2022-12-24T07:20:37;96746.84;;;9.67;100.00
56944;BME280;42848;42.524;12.052;2022-12-24T07:23:03;96752.22;;;9.59;100.00
56944;BME280;42848;42.524;12.052;2022-12-24T07:25:29;96754.88;;;9.81;100.00
56944;BME280;42848;42.524;12.052;2022-12-24T07:27:55;96744.38;;;9.88;100.00
56944;BME280;42848;42.524;12.052;2022-12-24T07:30:20;96753.47;;;9.92;100.00
56944;BME280;42848;42.524;12.052;2022-12-24T07:32:46;96750.84;;;10.18;100.00
56944;BME280;42848;42.524;12.052;2022-12-24T07:35:12;96748.56;;;10.12;100.00
56944;BME280;42848;42.524;12.052;2022-12-24T07:37:37;96755.56;;;10.04;100.00
56944;BME280;42848;42.524;12.052;2022-12-24T07:40:04;96755.88;;;10.03;100.00
56944;BME280;42848;42.524;12.052;2022-12-24T07:42:32;96760.66;;;9.88;100.00
56944;BME280;42848;42.524;12.052;2022-12-24T07:44:58;96763.03;;;9.90;100.00
56944;BME280;42848;42.524;12.052;2022-12-24T07:47:23;96773.59;;;10.00;100.00
56944;BME280;42848;42.524;12.052;2022-12-24T07:49:49;96766.59;;;10.08;100.00
56944;BME280;42848;42.524;12.052;2022-12-24T07:52:15;96775.63;;;10.25;100.00
56944;BME280;42848;42.524;12.052;2022-12-24T07:54:41;96775.06;;;10.06;100.00
56944;BME280;42848;42.524;12.052;2022-12-24T07:57:06;96775.88;;;10.07;100.00
56944;BME280;42848;42.524;12.052;2022-12-24T07:59:32;96771.06;;;10.12;100.00
56944;BME280;42848;42.524;12.052;2022-12-24T08:01:58;96768.59;;;10.24;100.00
56944;BME280;42848;42.524;12.052;2022-12-24T08:04:23;96772.09;;;10.25;100.00
56944;BME280;42848;42.524;12.052;2022-12-24T08:06:50;96778.09;;;10.13;100.00
56944;BME280;42848;42.524;12.052;2022-12-24T08:09:15;96785.69;;;10.25;100.00
56944;BME280;42848;42.524;12.052;2022-12-24T08:11:41;96792.38;;;10.36;100.00
56944;BME280;42848;42.524;12.052;2022-12-24T08:14:07;96787.00;;;10.53;100.00
56944;BME280;42848;42.524;12.052;2022-12-24T08:16:33;96782.81;;;10.47;100.00
56944;BME280;42848;42.524;12.052;2022-12-24T08:18:58;96786.78;;;10.41;100.00
56944;BME280;42848;42.524;12.052;2022-12-24T08:21:24;96787.59;;;10.50;100.00
56944;BME280;42848;42.524;12.052;2022-12-24T08:23:49;96786.69;;;10.64;100.00
56944;BME280;42848;42.524;12.052;2022-12-24T08:26:15;96795.63;;;10.73;100.00
56944;BME280;42848;42.524;12.052;2022-12-24T08:28:41;96799.28;;;10.77;100.00
56944;BME280;42848;42.524;12.052;2022-12-24T08:31:07;96806.97;;;10.75;100.00
56944;BME280;42848;42.524;12.052;2022-12-24T08:33:32;96804.56;;;10.65;100.00
56944;BME280;42848;42.524;12.052;2022-12-24T08:36:00;96823.09;;;10.63;100.00
56944;BME280;42848;42.524;12.052;2022-12-24T08:38:25;96821.81;;;10.77;100.00
56944;BME280;42848;42.524;12.052;2022-12-24T08:40:52;96817.69;;;10.80;100.00
56944;BME280;42848;42.524;12.052;2022-12-24T08:43:19;96818.63;;;10.84;100.00
56944;BME280;42848;42.524;12.052;2022-12-24T08:45:46;96815.44;;;10.82;100.00
56944;BME280;42848;42.524;12.052;2022-12-24T08:48:14;96811.47;;;10.79;100.00
56944;BME280;42848;42.524;12.052;2022-12-24T08:50:40;96808.75;;;10.88;100.00
56944;BME280;42848;42.524;12.052;2022-12-24T08:53:07;96808.88;;;10.92;100.00
56944;BME280;42848;42.524;12.052;2022-12-24T08:55:33;96823.28;;;10.92;100.00
56944;BME280;42848;42.524;12.052;2022-12-24T08:57:59;96816.06;;;10.96;100.00
56944;BME280;42848;42.524;12.052;2022-12-24T09:00:26;96814.97;;;10.97;100.00
56944;BME280;42848;42.524;12.052;2022-12-24T09:02:52;96807.91;;;10.96;100.00
56944;BME280;42848;42.524;12.052;2022-12-24T09:05:17;96817.84;;;11.01;100.00
56944;BME280;42848;42.524;12.052;2022-12-24T09:07:43;96825.66;;;11.02;100.00
56944;BME280;42848;42.524;12.052;2022-12-24T09:10:10;96844.53;;;11.07;100.00
56944;BME280;42848;42.524;12.052;2022-12-24T09:12:36;96834.94;;;11.10;100.00
56944;BME280;42848;42.524;12.052;2022-12-24T09:15:02;96831.88;;;11.20;100.00
56944;BME280;42848;42.524;12.052;2022-12-24T09:17:28;96838.44;;;11.19;100.00
56944;BME280;42848;42.524;12.052;2022-12-24T09:19:54;96846.44;;;11.16;100.00
56944;BME280;42848;42.524;12.052;2022-12-24T09:22:20;96835.09;;;11.05;100.00
56944;BME280;42848;42.524;12.052;2022-12-24T09:24:46;96830.28;;;11.10;100.00
56944;BME280;42848;42.524;12.052;2022-12-24T09:27:12;96832.88;;;11.16;100.00
56944;BME280;42848;42.524;12.052;2022-12-24T09:29:37;96847.72;;;11.09;100.00
56944;BME280;42848;42.524;12.052;2022-12-24T09:32:06;96848.03;;;11.17;100.00
56944;BME280;42848;42.524;12.052;2022-12-24T09:34:32;96842.63;;;11.17;100.00
56944;BME280;42848;42.524;12.052;2022-12-24T09:36:57;96842.44;;;11.13;100.00
56944;BME280;42848;42.524;12.052;2022-12-24T09:39:25;96868.97;;;11.16;100.00
56944;BME280;42848;42.524;12.052;2022-12-24T09:44:44;96888.47;;;11.18;100.00
56944;BME280;42848;42.524;12.052;2022-12-24T09:47:23;96890.88;;;11.20;100.00
56944;BME280;42848;42.524;12.052;2022-12-24T09:49:52;96888.16;;;11.20;100.00
56944;BME280;42848;42.524;12.052;2022-12-24T09:52:36;96884.78;;;11.14;100.00
56944;BME280;42848;42.524;12.052;2022-12-24T09:57:52;96898.69;;;11.13;100.00
56944;BME280;42848;42.524;12.052;2022-12-24T10:00:22;96892.31;;;11.17;100.00
56944;BME280;42848;42.524;12.052;2022-12-24T10:02:48;96897.09;;;11.20;100.00
56944;BME280;42848;42.524;12.052;2022-12-24T10:05:14;96884.31;;;11.12;100.00
56944;BME280;42848;42.524;12.052;2022-12-24T10:07:56;96892.13;;;11.31;100.00
56944;BME280;42848;42.524;12.052;2022-12-24T10:10:53;96890.88;;;11.28;100.00
56944;BME280;42848;42.524;12.052;2022-12-24T10:16:19;96887.97;;;11.33;100.00
56944;BME280;42848;42.524;12.052;2022-12-24T10:19:12;96896.78;;;11.48;100.00
56944;BME280;42848;42.524;12.052;2022-12-24T10:22:15;96899.63;;;11.51;100.00
56944;BME280;42848;42.524;12.052;2022-12-24T10:27:30;96904.59;;;11.66;100.00
56944;BME280;42848;42.524;12.052;2022-12-24T10:30:05;96911.00;;;11.71;100.00
56944;BME280;42848;42.524;12.052;2022-12-24T10:32:32;96906.97;;;11.77;100.00
56944;BME280;42848;42.524;12.052;2022-12-24T10:35:03;96909.25;;;11.83;100.00
56944;BME280;42848;42.524;12.052;2022-12-24T10:37:30;96919.78;;;11.93;100.00
56944;BME280;42848;42.524;12.052;2022-12-24T10:39:58;96914.66;;;11.92;100.00
56944;BME280;42848;42.524;12.052;2022-12-24T10:42:39;96909.81;;;11.98;100.00
56944;BME280;42848;42.524;12.052;2022-12-24T10:45:13;96905.81;;;12.04;100.00
56944;BME280;42848;42.524;12.052;2022-12-24T10:47:42;96917.50;;;12.04;100.00
56944;BME280;42848;42.524;12.052;2022-12-24T10:50:30;96900.53;;;12.07;100.00
56944;BME280;42848;42.524;12.052;2022-12-24T10:53:17;96901.31;;;12.16;100.00
56944;BME280;42848;42.524;12.052;2022-12-24T10:55:43;96897.47;;;12.17;100.00
56944;BME280;42848;42.524;12.052;2022-12-24T10:58:15;96898.72;;;12.29;100.00
56944;BME280;42848;42.524;12.052;2022-12-24T11:00:49;96900.97;;;12.27;100.00
56944;BME280;42848;42.524;12.052;2022-12-24T11:03:22;96884.63;;;12.27;100.00
56944;BME280;42848;42.524;12.052;2022-12-24T11:06:16;96881.06;;;12.35;100.00
56944;BME280;42848;42.524;12.052;2022-12-24T11:08:45;96877.50;;;12.43;100.00
56944;BME280;42848;42.524;12.052;2022-12-24T11:11:15;96876.84;;;12.46;100.00
56944;BME280;42848;42.524;12.052;2022-12-24T11:18:55;96867.06;;;12.53;100.00
56944;BME280;42848;42.524;12.052;2022-12-24T11:21:27;96869.56;;;12.59;100.00
56944;BME280;42848;42.524;12.052;2022-12-24T11:23:56;96864.28;;;12.62;100.00
56944;BME280;42848;42.524;12.052;2022-12-24T11:26:25;96866.91;;;12.71;100.00
56944;BME280;42848;42.524;12.052;2022-12-24T11:32:19;96863.50;;;12.82;100.00
56944;BME280;42848;42.524;12.052;2022-12-24T11:34:46;96857.09;;;12.78;100.00
56944;BME280;42848;42.524;12.052;2022-12-24T11:37:16;96861.13;;;12.81;100.00
56944;BME280;42848;42.524;12.052;2022-12-24T11:39:47;96860.16;;;12.77;100.00
56944;BME280;42848;42.524;12.052;2022-12-24T11:42:30;96863.03;;;12.80;100.00
56944;BME280;42848;42.524;12.052;2022-12-24T11:44:58;96853.25;;;12.79;100.00
56944;BME280;42848;42.524;12.052;2022-12-24T11:47:37;96861.56;;;12.83;100.00
56944;BME280;42848;42.524;12.052;2022-12-24T11:50:23;96854.03;;;12.80;100.00
56944;BME280;42848;42.524;12.052;2022-12-24T11:55:44;96866.56;;;12.81;100.00
56944;BME280;42848;42.524;12.052;2022-12-24T11:58:38;96859.66;;;12.84;100.00
56944;BME280;42848;42.524;12.052;2022-12-24T12:01:19;96865.22;;;12.87;100.00
56944;BME280;42848;42.524;12.052;2022-12-24T12:03:52;96867.81;;;12.84;100.00
56944;BME280;42848;42.524;12.052;2022-12-24T12:14:39;96856.19;;;12.95;100.00
56944;BME280;42848;42.524;12.052;2022-12-24T12:19:45;96853.00;;;12.93;100.00
56944;BME280;42848;42.524;12.052;2022-12-24T12:24:55;96851.34;;;13.01;100.00
56944;BME280;42848;42.524;12.052;2022-12-24T12:27:38;96853.41;;;13.04;100.00
56944;BME280;42848;42.524;12.052;2022-12-24T12:30:19;96856.75;;;13.09;100.00
56944;BME280;42848;42.524;12.052;2022-12-24T12:32:52;96854.53;;;13.03;100.00
56944;BME280;42848;42.524;12.052;2022-12-24T12:35:29;96852.28;;;13.05;100.00
56944;BME280;42848;42.524;12.052;2022-12-24T12:37:59;96840.72;;;13.08;100.00
56944;BME280;42848;42.524;12.052;2022-12-24T12:43:22;96848.22;;;13.11;100.00
56944;BME280;42848;42.524;12.052;2022-12-24T12:57:07;96853.75;;;13.23;100.00
56944;BME280;42848;42.524;12.052;2022-12-24T12:59:53;96860.34;;;13.22;100.00
56944;BME280;42848;42.524;12.052;2022-12-24T13:16:18;96859.03;;;13.28;100.00
56944;BME280;42848;42.524;12.052;2022-12-24T13:21:26;96853.84;;;13.35;100.00
56944;BME280;42848;42.524;12.052;2022-12-24T13:24:04;96852.09;;;13.31;100.00
56944;BME280;42848;42.524;12.052;2022-12-24T13:26:31;96857.56;;;13.31;100.00
56944;BME280;42848;42.524;12.052;2022-12-24T13:29:30;96854.03;;;13.30;100.00
56944;BME280;42848;42.524;12.052;2022-12-24T13:32:47;96849.81;;;13.33;100.00
56944;BME280;42848;42.524;12.052;2022-12-24T13:37:49;96856.75;;;13.30;100.00
56944;BME280;42848;42.524;12.052;2022-12-24T13:40:24;96853.03;;;13.35;100.00
56944;BME280;42848;42.524;12.052;2022-12-24T13:50:46;96839.25;;;13.31;100.00
56944;BME280;42848;42.524;12.052;2022-12-24T13:53:26;96844.25;;;13.29;100.00
56944;BME280;42848;42.524;12.052;2022-12-24T13:56:04;96836.53;;;13.31;100.00
56944;BME280;42848;42.524;12.052;2022-12-24T13:58:32;96846.13;;;13.37;100.00
56944;BME280;42848;42.524;12.052;2022-12-24T14:01:09;96839.72;;;13.33;100.00
56944;BME280;42848;42.524;12.052;2022-12-24T14:03:53;96837.88;;;13.25;100.00
56944;BME280;42848;42.524;12.052;2022-12-24T14:06:21;96843.00;;;13.27;100.00
56944;BME280;42848;42.524;12.052;2022-12-24T14:08:50;96844.66;;;13.19;100.00
56944;BME280;42848;42.524;12.052;2022-12-24T14:11:23;96846.13;;;13.17;100.00
56944;BME280;42848;42.524;12.052;2022-12-24T14:13:50;96846.72;;;13.22;100.00
56944;BME280;42848;42.524;12.052;2022-12-24T14:16:39;96847.69;;;13.18;100.00
56944;BME280;42848;42.524;12.052;2022-12-24T14:19:24;96866.97;;;13.13;100.00
56944;BME280;42848;42.524;12.052;2022-12-24T14:24:32;96847.56;;;13.14;100.00
56944;BME280;42848;42.524;12.052;2022-12-24T14:27:11;96853.00;;;13.14;100.00
56944;BME280;42848;42.524;12.052;2022-12-24T14:32:20;96855.16;;;13.08;100.00
56944;BME280;42848;42.524;12.052;2022-12-24T14:34:46;96861.41;;;13.09;100.00
56944;BME280;42848;42.524;12.052;2022-12-24T14:37:12;96864.59;;;13.11;100.00
56944;BME280;42848;42.524;12.052;2022-12-24T14:39:42;96865.38;;;13.12;100.00
56944;BME280;42848;42.524;12.052;2022-12-24T14:42:47;96862.72;;;13.03;100.00